createdAt,value
2023-02-16T00:00:46.781Z,30.52
2023-02-16T00:03:17.925Z,29.95
2023-02-16T00:05:44.288Z,30.65
2023-02-16T00:08:10.618Z,31.52
2023-02-16T00:10:38.009Z,31.60
2023-02-16T00:13:44.905Z,29.55
2023-02-16T00:16:15.960Z,30.60
2023-02-16T00:18:42.570Z,32.38
2023-02-16T00:21:09.223Z,31.73
2023-02-16T00:23:35.557Z,30.70
2023-02-16T00:26:01.962Z,29.10
2023-02-16T00:28:28.365Z,30.38
2023-02-16T00:30:54.769Z,32.08
2023-02-16T00:33:21.604Z,30.38
2023-02-16T00:35:48.080Z,31.00
2023-02-16T00:38:14.461Z,32.22
2023-02-16T00:40:41.658Z,30.35
2023-02-16T00:43:09.404Z,29.98
2023-02-16T00:45:36.961Z,29.80
2023-02-16T00:48:03.888Z,31.00
2023-02-16T00:50:32.199Z,31.17
2023-02-16T00:52:59.205Z,30.58
2023-02-16T00:55:33.487Z,30.58
2023-02-16T00:58:15.120Z,30.95
2023-02-16T01:00:46.814Z,30.35
2023-02-16T01:03:15.368Z,29.98
2023-02-16T01:05:41.709Z,30.95
2023-02-16T01:08:30.921Z,31.20
2023-02-16T01:11:09.836Z,31.00
2023-02-16T01:13:42.137Z,28.83
2023-02-16T01:16:13.339Z,29.67
2023-02-16T01:18:39.717Z,31.83
2023-02-16T01:21:06.063Z,31.58
2023-02-16T01:23:32.586Z,29.15
2023-02-16T01:25:58.964Z,29.27
2023-02-16T01:28:26.039Z,29.50
2023-02-16T01:30:53.202Z,29.27
2023-02-16T01:33:20.094Z,29.15
2023-02-16T01:35:46.589Z,30.77
2023-02-16T01:38:20.887Z,29.67
2023-02-16T01:40:57.274Z,30.02
2023-02-16T01:43:30.184Z,28.92
2023-02-16T01:46:05.719Z,30.02
2023-02-16T01:48:32.317Z,29.30
2023-02-16T01:51:34.029Z,30.75
2023-02-16T01:54:05.929Z,29.10
2023-02-16T01:56:54.596Z,28.70
2023-02-16T01:59:23.781Z,28.40
2023-02-16T02:01:55.254Z,30.55
2023-02-16T02:04:40.429Z,28.83
2023-02-16T02:07:06.917Z,29.77
2023-02-16T02:09:40.793Z,29.33
2023-02-16T02:12:14.393Z,30.27
2023-02-16T02:14:40.878Z,30.27
2023-02-16T02:17:09.381Z,30.42
2023-02-16T02:19:40.843Z,29.98
2023-02-16T02:22:28.815Z,29.38
2023-02-16T02:24:55.098Z,30.05
2023-02-16T02:27:25.913Z,30.63
2023-02-16T02:30:07.825Z,31.15
2023-02-16T02:32:46.525Z,29.67
2023-02-16T02:35:18.162Z,28.55
2023-02-16T02:37:47.532Z,29.33
2023-02-16T02:40:16.772Z,31.45
2023-02-16T02:42:51.267Z,28.40
2023-02-16T02:45:20.921Z,28.52
2023-02-16T02:47:47.944Z,30.20
2023-02-16T02:50:32.494Z,28.52
2023-02-16T02:53:00.934Z,27.40
2023-02-16T02:55:46.223Z,29.08
2023-02-16T02:58:32.252Z,30.38
2023-02-16T03:00:59.261Z,29.23
2023-02-16T03:03:31.900Z,29.50
2023-02-16T03:06:02.319Z,29.50
2023-02-16T03:08:30.245Z,27.85
2023-02-16T03:11:34.345Z,29.58
2023-02-16T03:14:03.214Z,28.52
2023-02-16T03:16:40.080Z,28.73
2023-02-16T03:19:26.987Z,28.35
2023-02-16T03:22:12.106Z,28.95
2023-02-16T03:24:57.281Z,27.58
2023-02-16T03:27:45.396Z,30.38
2023-02-16T03:30:12.645Z,26.05
2023-02-16T03:32:39.320Z,27.08
2023-02-16T03:35:05.912Z,27.50
2023-02-16T03:37:32.711Z,29.35
2023-02-16T03:40:17.455Z,27.70
2023-02-16T03:42:50.547Z,28.85
2023-02-16T03:45:17.487Z,27.35
2023-02-16T03:47:43.854Z,29.38
2023-02-16T03:50:10.479Z,27.67
2023-02-16T03:52:36.815Z,28.60
2023-02-16T03:55:03.247Z,26.75
2023-02-16T03:57:29.617Z,26.95
2023-02-16T03:59:57.713Z,26.05
2023-02-16T04:02:26.240Z,28.17
2023-02-16T04:04:52.641Z,27.77
2023-02-16T04:07:19.030Z,27.52
2023-02-16T04:09:45.337Z,27.60
2023-02-16T04:12:31.131Z,28.20
2023-02-16T04:14:58.062Z,27.70
2023-02-16T04:17:24.704Z,28.27
2023-02-16T04:19:51.242Z,29.10
2023-02-16T04:22:17.622Z,27.63
2023-02-16T04:24:44.032Z,27.65
2023-02-16T04:27:10.393Z,26.17
2023-02-16T04:29:36.765Z,27.35
2023-02-16T04:32:03.200Z,26.95
2023-02-16T04:34:29.719Z,27.90
2023-02-16T04:36:56.237Z,26.25
2023-02-16T04:39:22.609Z,26.70
2023-02-16T04:41:49.007Z,28.33
2023-02-16T04:44:15.445Z,26.17
2023-02-16T04:46:41.833Z,25.98
2023-02-16T04:49:08.215Z,27.15
2023-02-16T04:51:34.574Z,27.13
2023-02-16T04:54:00.992Z,26.90
2023-02-16T04:56:28.225Z,26.33
2023-02-16T04:58:55.679Z,27.35
2023-02-16T05:01:23.456Z,26.42
2023-02-16T05:03:49.856Z,27.48
2023-02-16T05:06:16.434Z,27.30
2023-02-16T05:08:42.866Z,26.00
2023-02-16T05:11:27.664Z,27.08
2023-02-16T05:14:12.566Z,27.08
2023-02-16T05:16:38.916Z,26.60
2023-02-16T05:19:05.382Z,27.35
2023-02-16T05:21:31.965Z,28.00
2023-02-16T05:23:59.393Z,26.73
2023-02-16T05:26:26.058Z,26.90
2023-02-16T05:28:52.467Z,26.40
2023-02-16T05:31:18.932Z,26.73
2023-02-16T05:33:45.377Z,25.92
2023-02-16T05:36:11.790Z,27.52
2023-02-16T05:38:38.185Z,26.52
2023-02-16T05:41:04.951Z,27.00
2023-02-16T05:43:31.581Z,27.52
2023-02-16T05:45:58.023Z,25.52
2023-02-16T05:48:24.539Z,26.85
2023-02-16T05:50:54.379Z,27.48
2023-02-16T05:53:20.818Z,26.23
2023-02-16T05:55:47.205Z,27.33
2023-02-16T05:58:13.552Z,26.52
2023-02-16T06:00:39.901Z,25.55
2023-02-16T06:03:06.413Z,26.23
2023-02-16T06:05:33.127Z,27.15
2023-02-16T06:07:59.506Z,25.45
2023-02-16T06:10:27.024Z,26.17
2023-02-16T06:12:53.389Z,26.58
2023-02-16T06:15:19.798Z,26.83
2023-02-16T06:17:46.107Z,26.08
2023-02-16T06:20:12.649Z,25.88
2023-02-16T06:22:38.985Z,26.48
2023-02-16T06:25:05.579Z,28.30
2023-02-16T06:27:31.906Z,26.33
2023-02-16T06:29:58.352Z,25.15
2023-02-16T06:32:24.919Z,26.48
2023-02-16T06:34:51.399Z,27.25
2023-02-16T06:37:17.801Z,26.65
2023-02-16T06:39:44.147Z,26.67
2023-02-16T06:42:10.553Z,26.40
2023-02-16T06:44:38.546Z,26.45
2023-02-16T06:47:05.066Z,27.20
2023-02-16T06:49:31.483Z,24.75
2023-02-16T06:51:58.059Z,25.70
2023-02-16T06:54:24.389Z,25.70
2023-02-16T06:56:50.716Z,25.65
2023-02-16T06:59:17.152Z,27.08
2023-02-16T07:01:45.226Z,24.73
2023-02-16T07:04:11.811Z,26.00
2023-02-16T07:06:38.254Z,25.48
2023-02-16T07:09:04.691Z,26.75
2023-02-16T07:11:31.086Z,24.75
2023-02-16T07:13:57.658Z,28.23
2023-02-16T07:16:24.206Z,30.88
2023-02-16T07:18:51.365Z,27.08
2023-02-16T07:21:17.708Z,27.25
2023-02-16T07:23:44.168Z,26.88
2023-02-16T07:26:10.651Z,27.17
2023-02-16T07:28:37.145Z,26.73
2023-02-16T07:31:11.194Z,27.02
2023-02-16T07:33:38.028Z,26.40
2023-02-16T07:36:04.578Z,25.85
2023-02-16T07:38:30.891Z,27.45
2023-02-16T07:40:57.942Z,28.65
2023-02-16T07:43:24.632Z,26.67
2023-02-16T07:45:51.057Z,27.75
2023-02-16T07:48:17.868Z,26.23
2023-02-16T07:50:44.304Z,27.90
2023-02-16T07:53:12.881Z,27.90
2023-02-16T07:55:40.571Z,28.92
2023-02-16T07:58:07.318Z,27.13
2023-02-16T08:00:33.752Z,27.02
2023-02-16T08:03:00.292Z,27.85
2023-02-16T08:05:26.723Z,28.33
2023-02-16T08:07:53.054Z,27.63
2023-02-16T08:10:19.547Z,27.13
2023-02-16T08:12:46.111Z,27.30
2023-02-16T08:15:12.642Z,27.00
2023-02-16T08:17:39.109Z,28.05
2023-02-16T08:20:07.797Z,26.90
2023-02-16T08:22:34.780Z,28.30
2023-02-16T08:25:01.212Z,27.17
2023-02-16T08:27:27.660Z,27.90
2023-02-16T08:29:54.179Z,28.25
2023-02-16T08:32:21.036Z,27.40
2023-02-16T08:34:47.642Z,29.33
2023-02-16T08:37:14.053Z,27.98
2023-02-16T08:39:40.653Z,28.38
2023-02-16T08:42:07.034Z,29.30
2023-02-16T08:44:33.668Z,27.83
2023-02-16T08:47:00.808Z,28.92
2023-02-16T08:49:27.708Z,29.58
2023-02-16T08:51:55.795Z,28.65
2023-02-16T08:54:30.304Z,28.80
2023-02-16T08:56:58.830Z,28.65
2023-02-16T08:59:28.341Z,28.52
2023-02-16T09:01:55.258Z,28.52
2023-02-16T09:04:21.686Z,29.35
2023-02-16T09:06:48.546Z,27.52
2023-02-16T09:09:15.287Z,29.00
2023-02-16T09:11:41.693Z,28.55
2023-02-16T09:14:09.386Z,27.45
2023-02-16T09:16:38.838Z,27.92
2023-02-16T09:19:05.994Z,29.70
2023-02-16T09:21:32.481Z,27.95
2023-02-16T09:24:00.808Z,28.23
2023-02-16T09:26:29.223Z,27.73
2023-02-16T09:28:56.399Z,27.50
2023-02-16T09:31:26.299Z,28.83
2023-02-16T09:33:57.661Z,28.50
2023-02-16T09:36:24.157Z,28.38
2023-02-16T09:38:51.397Z,28.83
2023-02-16T09:41:24.949Z,27.35
2023-02-16T09:44:05.680Z,30.77
2023-02-16T09:46:33.404Z,28.08
2023-02-16T09:49:02.409Z,27.52
2023-02-16T09:51:41.164Z,28.38
2023-02-16T09:54:32.435Z,29.70
2023-02-16T09:57:01.769Z,28.85
2023-02-16T09:59:38.186Z,29.42
2023-02-16T10:02:16.622Z,28.38
2023-02-16T10:05:02.115Z,27.70
2023-02-16T10:07:34.241Z,28.70
2023-02-16T10:10:01.111Z,28.50
2023-02-16T10:12:32.128Z,28.70
2023-02-16T10:15:14.307Z,27.73
2023-02-16T10:17:44.182Z,28.02
2023-02-16T10:20:25.624Z,29.98
2023-02-16T10:22:57.982Z,29.08
2023-02-16T10:25:33.109Z,29.17
2023-02-16T10:28:20.279Z,30.80
2023-02-16T10:30:57.563Z,29.27
2023-02-16T10:35:56.645Z,28.25
2023-02-16T10:38:32.323Z,29.17
2023-02-16T10:41:06.222Z,28.58
2023-02-16T10:43:53.222Z,28.80
2023-02-16T10:46:25.439Z,30.77
2023-02-16T10:48:55.828Z,29.77
2023-02-16T10:51:27.984Z,30.15
2023-02-16T10:54:05.756Z,29.65
2023-02-16T10:56:41.528Z,27.75
2023-02-16T10:59:14.087Z,24.08
2023-02-16T11:01:43.843Z,31.15
2023-02-16T11:04:28.941Z,29.40
2023-02-16T11:07:03.217Z,29.55
2023-02-16T11:09:29.572Z,29.35
2023-02-16T11:11:56.197Z,31.48
2023-02-16T11:14:24.170Z,32.63
2023-02-16T11:17:02.826Z,30.05
2023-02-16T11:19:32.343Z,28.00
2023-02-16T11:21:59.269Z,29.10
2023-02-16T11:24:27.747Z,31.67
2023-02-16T11:27:14.414Z,27.40
2023-02-16T11:29:41.189Z,25.88
2023-02-16T11:32:08.353Z,26.30
2023-02-16T11:34:43.214Z,23.23
2023-02-16T11:37:12.733Z,24.50
2023-02-16T11:39:40.094Z,23.25
2023-02-16T11:42:30.162Z,21.15
2023-02-16T11:44:57.393Z,20.33
2023-02-16T11:47:37.630Z,20.73
2023-02-16T11:50:26.956Z,20.65
2023-02-16T11:52:55.037Z,20.35
2023-02-16T11:55:26.763Z,20.13
2023-02-16T11:57:54.119Z,21.58
2023-02-16T12:00:22.242Z,21.23
2023-02-16T12:03:06.907Z,20.00
2023-02-16T12:05:48.610Z,20.63
2023-02-16T12:08:20.803Z,18.88
2023-02-16T12:10:50.109Z,19.05
2023-02-16T12:13:28.882Z,18.77
2023-02-16T12:16:07.609Z,17.80
2023-02-16T12:18:40.676Z,18.38
2023-02-16T12:21:20.150Z,18.63
2023-02-16T12:24:09.503Z,19.13
2023-02-16T12:27:14.573Z,18.85
2023-02-16T12:29:56.255Z,18.20
2023-02-16T12:32:32.025Z,18.42
2023-02-16T12:35:01.601Z,17.00
2023-02-16T12:37:43.420Z,17.77
2023-02-16T12:40:24.947Z,17.10
2023-02-16T12:42:54.331Z,15.88
2023-02-16T12:45:22.625Z,15.88
2023-02-16T12:47:52.423Z,15.85
2023-02-16T12:50:24.103Z,16.88
2023-02-16T12:52:54.032Z,17.25
2023-02-16T12:55:38.921Z,15.70
2023-02-16T12:58:05.279Z,18.23
2023-02-16T13:00:37.214Z,15.18
2023-02-16T13:03:15.981Z,16.83
2023-02-16T13:05:43.443Z,18.67
2023-02-16T13:08:16.483Z,17.38
2023-02-16T13:10:55.405Z,17.92
2023-02-16T13:13:25.034Z,17.98
2023-02-16T13:16:01.712Z,18.35
2023-02-16T13:18:31.373Z,17.17
2023-02-16T13:21:00.490Z,17.33
2023-02-16T13:23:35.834Z,17.55
2023-02-16T13:26:18.137Z,18.33
2023-02-16T13:29:03.281Z,17.60
2023-02-16T13:31:36.688Z,17.85
2023-02-16T13:34:06.230Z,17.60
2023-02-16T13:36:39.085Z,18.17
2023-02-16T13:39:11.298Z,16.10
2023-02-16T13:41:47.172Z,18.90
2023-02-16T13:46:43.139Z,17.45
2023-02-16T13:49:27.562Z,17.38
2023-02-16T13:51:55.297Z,16.90
2023-02-16T13:54:32.070Z,18.65
2023-02-16T13:56:58.697Z,15.80
2023-02-16T13:59:25.129Z,17.38
2023-02-16T14:01:53.675Z,17.00
2023-02-16T14:04:23.025Z,16.92
2023-02-16T14:06:50.549Z,16.52
2023-02-16T14:09:16.918Z,16.30
2023-02-16T14:11:57.471Z,16.33
2023-02-16T14:14:33.598Z,17.35
2023-02-16T14:17:18.032Z,17.08
2023-02-16T14:19:50.285Z,15.13
2023-02-16T14:22:24.819Z,15.50
2023-02-16T14:24:52.479Z,16.05
2023-02-16T14:27:38.821Z,12.10
2023-02-16T14:35:05.646Z,14.77
2023-02-16T14:37:53.032Z,12.80
2023-02-16T14:40:21.761Z,13.63
2023-02-16T14:42:51.095Z,13.23
2023-02-16T14:45:23.538Z,12.25
2023-02-16T14:47:58.875Z,13.75
2023-02-16T14:50:38.119Z,12.40
2023-02-16T14:53:22.665Z,13.20
2023-02-16T14:55:55.223Z,11.93
2023-02-16T14:58:25.919Z,12.85
2023-02-16T15:00:52.334Z,12.55
2023-02-16T15:03:22.197Z,13.00
2023-02-16T15:05:51.136Z,12.40
2023-02-16T15:08:22.597Z,12.73
2023-02-16T15:10:54.065Z,12.85
2023-02-16T15:13:21.687Z,12.82
2023-02-16T15:15:50.083Z,12.52
2023-02-16T15:18:17.893Z,12.25
2023-02-16T15:20:45.957Z,13.52
2023-02-16T15:23:25.003Z,13.00
2023-02-16T15:25:53.031Z,14.00
2023-02-16T15:28:22.264Z,10.82
2023-02-16T15:30:50.580Z,12.88
2023-02-16T15:33:23.052Z,13.38
2023-02-16T15:35:59.881Z,12.73
2023-02-16T15:38:27.945Z,12.95
2023-02-16T15:40:55.237Z,13.68
2023-02-16T15:43:22.310Z,13.80
2023-02-16T15:45:52.731Z,14.10
2023-02-16T15:48:23.987Z,11.43
2023-02-16T15:50:55.077Z,13.38
2023-02-16T15:53:30.358Z,12.38
2023-02-16T15:55:56.781Z,13.73
2023-02-16T15:58:23.157Z,13.45
2023-02-16T16:00:49.607Z,13.00
2023-02-16T16:03:17.145Z,10.63
2023-02-16T16:05:52.809Z,12.40
2023-02-16T16:08:22.692Z,12.60
2023-02-16T16:10:49.150Z,11.88
2023-02-16T16:13:18.725Z,11.77
2023-02-16T16:15:46.622Z,11.00
2023-02-16T16:18:31.506Z,11.80
2023-02-16T16:21:02.661Z,10.52
2023-02-16T16:23:29.374Z,10.95
2023-02-16T16:25:55.903Z,9.38
2023-02-16T16:28:28.536Z,9.40
2023-02-16T16:31:12.409Z,8.52
2023-02-16T16:33:53.875Z,7.63
2023-02-16T16:36:20.929Z,7.07
2023-02-16T16:38:47.795Z,6.88
2023-02-16T16:41:27.722Z,7.10
2023-02-16T16:43:55.421Z,6.72
2023-02-16T16:46:25.829Z,6.85
2023-02-16T16:49:04.284Z,7.45
2023-02-16T16:51:31.593Z,7.07
2023-02-16T16:54:03.952Z,7.03
2023-02-16T16:56:31.375Z,7.10
2023-02-16T16:58:58.365Z,6.82
2023-02-16T17:01:25.804Z,6.80
2023-02-16T17:03:52.212Z,7.18
2023-02-16T17:06:19.121Z,6.93
2023-02-16T17:08:45.782Z,6.57
2023-02-16T17:11:14.460Z,6.25
2023-02-16T17:13:40.815Z,5.80
2023-02-16T17:16:08.904Z,6.03
2023-02-16T17:18:35.370Z,5.85
2023-02-16T17:21:01.729Z,5.50
2023-02-16T17:23:28.038Z,4.13
2023-02-16T17:25:54.447Z,4.93
2023-02-16T17:28:21.528Z,4.82
2023-02-16T17:30:47.956Z,4.85
2023-02-16T17:33:14.539Z,4.35
2023-02-16T17:35:42.103Z,4.40
2023-02-16T17:38:09.726Z,4.20
2023-02-16T17:40:36.204Z,4.15
2023-02-16T17:43:02.937Z,4.22
2023-02-16T17:45:29.335Z,3.38
2023-02-16T17:47:55.669Z,3.22
2023-02-16T17:50:22.087Z,3.30
2023-02-16T17:52:48.488Z,2.83
2023-02-16T17:55:15.171Z,3.08
2023-02-16T17:57:41.748Z,3.30
2023-02-16T18:00:09.660Z,2.75
2023-02-16T18:02:36.017Z,2.88
2023-02-16T18:05:02.333Z,3.03
2023-02-16T18:07:28.746Z,2.83
2023-02-16T18:09:55.149Z,2.75
2023-02-16T18:12:21.478Z,3.17
2023-02-16T18:14:47.937Z,3.40
2023-02-16T18:17:14.451Z,3.55
2023-02-16T18:19:40.845Z,3.72
2023-02-16T18:22:07.266Z,3.65
2023-02-16T18:24:33.628Z,3.13
2023-02-16T18:27:00.071Z,4.40
2023-02-16T18:29:26.486Z,4.35
2023-02-16T18:31:52.922Z,3.20
2023-02-16T18:34:19.402Z,2.90
2023-02-16T18:36:45.722Z,3.03
2023-02-16T18:39:12.248Z,2.72
2023-02-16T18:41:38.676Z,2.85
2023-02-16T18:44:05.381Z,1.52
2023-02-16T18:46:31.766Z,2.58
2023-02-16T18:48:58.175Z,2.03
2023-02-16T18:51:28.846Z,1.80
2023-02-16T18:53:55.420Z,1.73
2023-02-16T18:56:21.768Z,1.85
2023-02-16T18:58:48.216Z,2.20
2023-02-16T19:01:26.859Z,2.22
2023-02-16T19:03:53.285Z,1.88
2023-02-16T19:06:19.673Z,2.50
2023-02-16T19:08:46.417Z,2.97
2023-02-16T19:11:13.045Z,2.95
2023-02-16T19:13:39.480Z,3.25
2023-02-16T19:16:06.502Z,3.40
2023-02-16T19:18:33.113Z,4.00
2023-02-16T19:20:59.469Z,3.60
2023-02-16T19:23:25.870Z,3.92
2023-02-16T19:25:52.249Z,4.20
2023-02-16T19:28:18.656Z,4.22
2023-02-16T19:30:45.017Z,4.20
2023-02-16T19:33:11.665Z,4.43
2023-02-16T19:35:38.060Z,4.63
2023-02-16T19:38:04.457Z,4.47
2023-02-16T19:40:31.652Z,4.57
2023-02-16T19:42:58.014Z,3.55
2023-02-16T19:45:24.904Z,3.80
2023-02-16T19:47:51.478Z,3.22
2023-02-16T19:50:17.986Z,3.85
2023-02-16T19:52:44.328Z,3.47
2023-02-16T19:55:11.702Z,5.20
2023-02-16T19:57:38.348Z,3.80
2023-02-16T20:00:05.925Z,2.70
2023-02-16T20:02:32.380Z,4.03
2023-02-16T20:04:58.757Z,5.88
2023-02-16T20:07:25.278Z,6.55
2023-02-16T20:09:51.644Z,7.45
2023-02-16T20:12:18.032Z,5.45
2023-02-16T20:14:44.370Z,8.07
2023-02-16T20:17:10.997Z,7.70
2023-02-16T20:19:37.333Z,7.97
2023-02-16T20:22:03.694Z,7.88
2023-02-16T20:24:30.049Z,7.78
2023-02-16T20:26:56.357Z,8.07
2023-02-16T20:29:22.826Z,7.53
2023-02-16T20:31:51.069Z,6.78
2023-02-16T20:34:17.604Z,6.53
2023-02-16T20:36:44.014Z,5.93
2023-02-16T20:39:10.412Z,7.30
2023-02-16T20:41:37.004Z,5.82
2023-02-16T20:44:03.987Z,6.28
2023-02-16T20:46:30.532Z,6.60
2023-02-16T20:48:57.088Z,5.43
2023-02-16T20:51:23.887Z,5.65
2023-02-16T20:53:50.618Z,5.47
2023-02-16T20:56:20.679Z,6.22
2023-02-16T20:58:48.107Z,6.10
2023-02-16T21:01:20.294Z,6.85
2023-02-16T21:03:46.737Z,5.30
2023-02-16T21:06:13.129Z,4.45
2023-02-16T21:08:40.038Z,5.40
2023-02-16T21:11:06.645Z,5.95
2023-02-16T21:13:33.285Z,4.70
2023-02-16T21:15:59.717Z,5.32
2023-02-16T21:18:26.350Z,4.32
2023-02-16T21:20:52.722Z,3.92
2023-02-16T21:23:19.190Z,4.20
2023-02-16T21:25:45.526Z,4.40
2023-02-16T21:28:11.937Z,2.63
2023-02-16T21:30:38.359Z,4.28
2023-02-16T21:33:04.679Z,3.40
2023-02-16T21:35:32.423Z,3.05
2023-02-16T21:37:58.838Z,2.90
2023-02-16T21:40:43.692Z,2.95
2023-02-16T21:43:11.135Z,2.90
2023-02-16T21:45:37.509Z,3.38
2023-02-16T21:48:22.573Z,3.05
2023-02-16T21:50:48.976Z,3.20
2023-02-16T21:53:15.372Z,2.70
2023-02-16T21:56:00.534Z,2.65
2023-02-16T21:58:27.093Z,3.42
2023-02-16T22:00:53.851Z,2.65
2023-02-16T22:03:20.719Z,2.85
2023-02-16T22:05:47.147Z,3.28
2023-02-16T22:08:14.530Z,2.60
2023-02-16T22:10:40.989Z,2.35
2023-02-16T22:13:07.348Z,2.80
2023-02-16T22:15:35.184Z,2.97
2023-02-16T22:18:01.610Z,3.67
2023-02-16T22:20:28.066Z,2.58
2023-02-16T22:22:54.434Z,3.17
2023-02-16T22:25:20.808Z,2.95
2023-02-16T22:27:47.155Z,3.38
2023-02-16T22:30:13.559Z,3.55
2023-02-16T22:32:40.389Z,3.58
2023-02-16T22:35:06.958Z,3.65
2023-02-16T22:37:33.742Z,2.90
2023-02-16T22:40:00.140Z,3.35
2023-02-16T22:42:26.804Z,3.35
2023-02-16T22:44:53.151Z,3.72
2023-02-16T22:47:19.546Z,4.07
2023-02-16T22:49:45.883Z,3.83
2023-02-16T22:52:12.195Z,3.92
2023-02-16T22:54:38.580Z,4.25
2023-02-16T22:57:07.096Z,3.42
2023-02-16T22:59:33.489Z,4.50
2023-02-16T23:01:59.822Z,4.53
2023-02-16T23:04:26.249Z,4.40
2023-02-16T23:06:52.698Z,4.47
2023-02-16T23:09:20.780Z,3.72
2023-02-16T23:11:47.538Z,3.85
2023-02-16T23:14:16.775Z,3.53
2023-02-16T23:16:44.195Z,4.50
2023-02-16T23:19:12.237Z,5.18
2023-02-16T23:21:38.760Z,4.88
2023-02-16T23:24:05.244Z,4.15
2023-02-16T23:26:32.236Z,4.80
2023-02-16T23:28:59.904Z,4.63
2023-02-16T23:31:26.418Z,4.35
2023-02-16T23:33:52.829Z,3.88
2023-02-16T23:36:19.183Z,4.03
2023-02-16T23:38:45.578Z,4.45
2023-02-16T23:41:12.741Z,4.07
2023-02-16T23:43:39.250Z,6.60
2023-02-16T23:46:05.986Z,5.50
2023-02-16T23:48:32.847Z,6.18
2023-02-16T23:50:59.261Z,6.40
2023-02-16T23:53:26.312Z,7.25
2023-02-16T23:55:58.508Z,8.18
2023-02-16T23:58:25.632Z,8.63
